createdAt,value
2018-02-09T00:00:12.673Z,70.27
2018-02-09T00:02:40.510Z,63.67
2018-02-09T00:05:08.166Z,70.63
2018-02-09T00:07:35.697Z,64.37
2018-02-09T00:10:03.257Z,71.97
2018-02-09T00:12:30.782Z,64.57
2018-02-09T00:14:58.307Z,73.43
2018-02-09T00:17:26.048Z,72.03
2018-02-09T00:19:53.569Z,65.60
2018-02-09T00:22:21.081Z,65.63
2018-02-09T00:24:48.621Z,69.93
2018-02-09T00:27:16.151Z,68.17
2018-02-09T00:29:43.930Z,63.77
2018-02-09T00:32:11.474Z,63.80
2018-02-09T00:34:38.997Z,63.63
2018-02-09T00:37:06.529Z,69.70
2018-02-09T00:39:34.071Z,60.50
2018-02-09T00:42:02.374Z,78.97
2018-02-09T00:44:29.910Z,62.63
2018-02-09T00:46:58.628Z,75.07
2018-02-09T00:49:26.260Z,66.70
2018-02-09T00:51:53.798Z,66.77
2018-02-09T00:54:21.369Z,64.37
2018-02-09T00:56:49.706Z,71.00
2018-02-09T00:59:17.233Z,68.27
2018-02-09T01:01:44.784Z,61.30
2018-02-09T01:04:17.142Z,67.47
2018-02-09T01:06:44.678Z,76.90
2018-02-09T01:09:12.250Z,86.23
2018-02-09T01:11:39.836Z,73.47
2018-02-09T01:14:07.386Z,62.20
2018-02-09T01:16:35.749Z,62.80
2018-02-09T01:19:03.309Z,73.70
2018-02-09T01:21:30.846Z,70.00
2018-02-09T01:23:58.410Z,67.85
2018-02-09T01:26:25.946Z,66.17
2018-02-09T01:28:53.490Z,73.93
2018-02-09T01:31:21.061Z,66.50
2018-02-09T01:33:48.603Z,57.58
2018-02-09T01:36:16.181Z,65.45
2018-02-09T01:38:44.378Z,66.87
2018-02-09T01:41:11.916Z,65.53
2018-02-09T01:43:39.454Z,64.82
2018-02-09T01:46:07.036Z,65.25
2018-02-09T01:48:34.679Z,72.03
2018-02-09T01:51:02.982Z,63.70
2018-02-09T01:53:30.566Z,74.93
2018-02-09T01:55:58.130Z,64.05
2018-02-09T01:58:25.665Z,68.10
2018-02-09T02:00:53.227Z,67.37
2018-02-09T02:03:20.774Z,69.20
2018-02-09T02:05:48.307Z,72.03
2018-02-09T02:08:16.903Z,65.85
2018-02-09T02:10:44.457Z,73.95
2018-02-09T02:13:12.928Z,75.00
2018-02-09T02:15:40.785Z,64.17
2018-02-09T02:18:09.342Z,69.03
2018-02-09T02:20:36.932Z,57.15
2018-02-09T02:23:04.843Z,52.58
2018-02-09T02:25:32.698Z,66.55
2018-02-09T02:28:00.421Z,68.00
2018-02-09T02:30:28.205Z,63.72
2018-02-09T02:32:57.041Z,62.60
2018-02-09T02:35:24.629Z,57.80
2018-02-09T02:37:53.036Z,60.10
2018-02-09T02:40:21.334Z,76.43
2018-02-09T02:42:48.964Z,62.55
2018-02-09T02:45:16.874Z,65.47
2018-02-09T02:47:44.603Z,72.28
2018-02-09T02:50:12.718Z,70.55
2018-02-09T02:52:40.358Z,57.67
2018-02-09T02:55:08.300Z,59.80
2018-02-09T02:57:36.212Z,63.40
2018-02-09T03:00:04.229Z,54.90
2018-02-09T03:02:32.041Z,59.00
2018-02-09T03:04:59.669Z,58.40
2018-02-09T03:07:27.498Z,61.10
2018-02-09T03:09:55.240Z,52.77
2018-02-09T03:12:23.188Z,58.17
2018-02-09T03:14:50.822Z,52.23
2018-02-09T03:17:19.142Z,64.03
2018-02-09T03:19:46.748Z,50.50
2018-02-09T03:22:16.175Z,61.53
2018-02-09T03:24:43.717Z,56.20
2018-02-09T03:27:11.397Z,55.07
2018-02-09T03:29:39.422Z,55.73
2018-02-09T03:32:07.330Z,59.20
2018-02-09T03:34:35.489Z,62.63
2018-02-09T03:37:03.102Z,44.03
2018-02-09T03:39:31.446Z,59.67
2018-02-09T03:41:59.051Z,63.33
2018-02-09T03:44:26.970Z,58.37
2018-02-09T03:46:54.550Z,57.47
2018-02-09T03:49:22.454Z,62.40
2018-02-09T03:51:50.737Z,53.07
2018-02-09T03:54:18.445Z,53.97
2018-02-09T03:56:46.315Z,60.10
2018-02-09T03:59:15.093Z,59.57
2018-02-09T04:01:42.632Z,57.93
2018-02-09T04:04:10.474Z,68.60
2018-02-09T04:06:38.120Z,60.43
2018-02-09T04:09:06.743Z,62.33
2018-02-09T04:11:34.412Z,62.83
2018-02-09T04:14:01.976Z,63.30
2018-02-09T04:16:29.509Z,52.97
2018-02-09T04:18:57.068Z,72.53
2018-02-09T04:21:24.621Z,60.13
2018-02-09T04:23:52.923Z,61.03
2018-02-09T04:26:20.457Z,65.23
2018-02-09T04:28:48.801Z,52.80
2018-02-09T04:31:16.329Z,50.57
2018-02-09T04:33:43.851Z,69.67
2018-02-09T04:36:11.877Z,61.57
2018-02-09T04:38:39.407Z,56.10
2018-02-09T04:41:06.943Z,54.83
2018-02-09T04:43:35.274Z,60.07
2018-02-09T04:46:02.802Z,58.17
2018-02-09T04:48:30.442Z,51.43
2018-02-09T04:50:58.016Z,61.87
2018-02-09T04:53:25.757Z,56.20
2018-02-09T04:55:54.054Z,45.43
2018-02-09T04:58:21.618Z,51.50
2018-02-09T05:00:49.158Z,49.20
2018-02-09T05:03:17.508Z,54.73
2018-02-09T05:05:45.065Z,63.83
2018-02-09T05:08:12.892Z,47.20
2018-02-09T05:10:40.450Z,53.50
2018-02-09T05:13:08.129Z,53.00
2018-02-09T05:15:36.445Z,49.83
2018-02-09T05:18:03.972Z,50.83
2018-02-09T05:20:31.533Z,48.43
2018-02-09T05:22:59.104Z,48.40
2018-02-09T05:25:26.651Z,50.17
2018-02-09T05:27:54.237Z,53.23
2018-02-09T05:30:21.769Z,53.40
2018-02-09T05:32:49.304Z,56.37
2018-02-09T05:35:18.738Z,50.90
2018-02-09T05:37:46.273Z,54.33
2018-02-09T05:40:13.801Z,52.60
2018-02-09T05:42:41.349Z,49.90
2018-02-09T05:45:08.877Z,55.17
2018-02-09T05:47:36.410Z,50.50
2018-02-09T05:50:03.976Z,50.20
2018-02-09T05:52:31.525Z,54.53
2018-02-09T05:54:59.372Z,52.47
2018-02-09T05:57:26.930Z,53.63
2018-02-09T05:59:55.228Z,54.90
2018-02-09T06:02:22.771Z,48.50
2018-02-09T06:04:50.329Z,55.63
2018-02-09T06:07:18.629Z,48.87
2018-02-09T06:09:46.178Z,52.28
2018-02-09T06:12:14.497Z,51.75
2018-02-09T06:14:42.330Z,49.65
2018-02-09T06:17:10.622Z,59.27
2018-02-09T06:19:38.201Z,48.40
2018-02-09T06:22:05.739Z,45.03
2018-02-09T06:24:33.274Z,49.13
2018-02-09T06:27:00.827Z,48.40
2018-02-09T06:29:28.362Z,59.08
2018-02-09T06:31:55.890Z,49.23
2018-02-09T06:34:23.431Z,54.67
2018-02-09T06:36:51.076Z,47.90
2018-02-09T06:39:19.376Z,52.17
2018-02-09T06:41:46.929Z,50.63
2018-02-09T06:44:15.204Z,58.13
2018-02-09T06:46:42.739Z,52.95
2018-02-09T06:49:10.286Z,55.10
2018-02-09T06:51:37.823Z,57.60
2018-02-09T06:54:05.337Z,49.53
2018-02-09T06:56:34.495Z,61.73
2018-02-09T06:59:02.110Z,56.53
2018-02-09T07:01:29.635Z,55.90
2018-02-09T07:03:57.203Z,57.50
2018-02-09T07:06:26.082Z,59.57
2018-02-09T07:08:53.625Z,49.67
2018-02-09T07:11:21.941Z,54.27
2018-02-09T07:13:50.252Z,53.90
2018-02-09T07:16:17.982Z,63.57
2018-02-09T07:18:45.539Z,56.13
2018-02-09T07:21:13.821Z,60.43
2018-02-09T07:23:42.117Z,61.57
2018-02-09T07:26:09.671Z,57.53
2018-02-09T07:28:37.188Z,60.70
2018-02-09T07:31:04.720Z,59.43
2018-02-09T07:33:32.265Z,48.30
2018-02-09T07:35:59.794Z,57.13
2018-02-09T07:38:28.080Z,60.77
2018-02-09T07:40:55.676Z,59.90
2018-02-09T07:43:23.202Z,57.27
2018-02-09T07:45:51.491Z,55.37
2018-02-09T07:48:19.038Z,49.77
2018-02-09T07:50:47.926Z,58.00
2018-02-09T07:53:15.454Z,61.17
2018-02-09T07:55:43.006Z,57.40
2018-02-09T07:58:10.725Z,65.00
2018-02-09T08:00:38.336Z,63.77
2018-02-09T08:03:07.294Z,56.67
2018-02-09T08:05:34.816Z,50.13
2018-02-09T08:08:02.341Z,53.80
2018-02-09T08:10:30.152Z,50.23
2018-02-09T08:12:57.688Z,64.50
2018-02-09T08:15:25.213Z,52.27
2018-02-09T08:17:52.782Z,59.70
2018-02-09T08:20:20.300Z,56.57
2018-02-09T08:22:49.172Z,57.20
2018-02-09T08:25:18.171Z,70.77
2018-02-09T08:27:47.052Z,66.07
2018-02-09T08:30:16.107Z,62.70
2018-02-09T08:32:45.016Z,54.37
2018-02-09T08:35:14.016Z,52.30
2018-02-09T08:37:42.894Z,63.47
2018-02-09T08:40:11.910Z,67.40
2018-02-09T08:42:41.271Z,57.93
2018-02-09T08:45:10.258Z,61.77
2018-02-09T08:47:39.560Z,64.97
2018-02-09T08:50:08.467Z,60.20
2018-02-09T08:52:37.340Z,62.40
2018-02-09T08:55:06.246Z,58.97
2018-02-09T08:57:35.116Z,63.73
2018-02-09T09:00:04.397Z,59.23
2018-02-09T09:02:33.395Z,64.67
2018-02-09T09:05:02.313Z,62.80
2018-02-09T09:07:31.222Z,60.77
2018-02-09T09:10:00.147Z,58.03
2018-02-09T09:12:29.225Z,60.47
2018-02-09T09:14:58.394Z,64.63
2018-02-09T09:17:27.497Z,69.90
2018-02-09T09:19:56.967Z,64.60
2018-02-09T09:22:25.949Z,66.83
2018-02-09T09:24:54.889Z,60.53
2018-02-09T09:27:24.018Z,60.93
2018-02-09T09:29:52.999Z,55.27
2018-02-09T09:32:22.418Z,64.00
2018-02-09T09:34:51.390Z,64.77
2018-02-09T09:37:20.308Z,52.93
2018-02-09T09:39:49.284Z,49.47
2018-02-09T09:42:18.174Z,53.67
2018-02-09T09:44:47.063Z,53.87
2018-02-09T09:47:15.961Z,59.73
2018-02-09T09:49:44.837Z,55.80
2018-02-09T09:52:13.705Z,57.57
2018-02-09T09:54:42.609Z,49.83
2018-02-09T09:57:11.476Z,50.43
2018-02-09T09:59:40.340Z,51.50
2018-02-09T10:02:09.461Z,59.63
2018-02-09T10:04:38.324Z,59.23
2018-02-09T10:07:07.189Z,54.63
2018-02-09T10:09:36.088Z,60.40
2018-02-09T10:12:04.959Z,51.23
2018-02-09T10:14:33.832Z,52.33
2018-02-09T10:17:02.727Z,43.23
2018-02-09T10:19:31.597Z,44.70
2018-02-09T10:22:00.957Z,52.10
2018-02-09T10:24:30.921Z,46.17
2018-02-09T10:26:59.801Z,47.03
2018-02-09T10:29:29.086Z,47.30
2018-02-09T10:31:58.226Z,45.70
2018-02-09T10:34:27.460Z,43.90
2018-02-09T10:36:56.572Z,42.20
2018-02-09T10:39:25.495Z,37.87
2018-02-09T10:41:54.525Z,39.87
2018-02-09T10:44:23.436Z,39.57
2018-02-09T10:46:52.933Z,38.50
2018-02-09T10:49:21.985Z,44.87
2018-02-09T10:51:50.865Z,35.47
2018-02-09T10:54:20.189Z,38.37
2018-02-09T10:56:49.089Z,35.83
2018-02-09T10:59:17.985Z,32.80
2018-02-09T11:01:47.163Z,34.30
2018-02-09T11:04:16.392Z,30.97
2018-02-09T11:06:45.284Z,37.93
2018-02-09T11:09:14.195Z,34.50
2018-02-09T11:11:43.714Z,35.70
2018-02-09T11:14:12.637Z,26.77
2018-02-09T11:16:41.551Z,35.13
2018-02-09T11:19:10.440Z,32.30
2018-02-09T11:21:39.316Z,40.73
2018-02-09T11:24:08.503Z,29.07
2018-02-09T11:26:37.411Z,32.83
2018-02-09T11:29:06.297Z,34.27
2018-02-09T11:31:35.629Z,32.23
2018-02-09T11:34:04.520Z,31.27
2018-02-09T11:36:33.397Z,26.87
2018-02-09T11:39:02.306Z,30.47
2018-02-09T11:41:31.297Z,27.73
2018-02-09T11:44:00.169Z,30.30
2018-02-09T11:46:29.074Z,34.53
2018-02-09T11:48:58.100Z,30.87
2018-02-09T11:51:26.997Z,31.37
2018-02-09T11:53:55.900Z,29.50
2018-02-09T11:56:24.781Z,32.33
2018-02-09T11:58:53.730Z,38.07
2018-02-09T12:01:22.624Z,29.50
2018-02-09T12:03:51.627Z,32.67
2018-02-09T12:06:20.719Z,29.20
2018-02-09T12:08:49.634Z,29.73
2018-02-09T12:11:18.918Z,28.33
2018-02-09T12:13:48.045Z,38.00
2018-02-09T12:16:16.964Z,28.23
2018-02-09T12:18:45.844Z,25.73
2018-02-09T12:21:14.717Z,31.93
2018-02-09T12:23:43.619Z,28.70
2018-02-09T12:26:12.769Z,35.57
2018-02-09T12:28:41.662Z,29.50
2018-02-09T12:31:10.572Z,40.13
2018-02-09T12:33:39.458Z,28.97
2018-02-09T12:36:08.380Z,38.33
2018-02-09T12:38:37.316Z,30.77
2018-02-09T12:41:06.198Z,34.23
2018-02-09T12:43:35.094Z,71.10
2018-02-09T12:46:04.036Z,32.63
2018-02-09T12:48:32.996Z,36.63
2018-02-09T12:51:02.229Z,33.27
2018-02-09T12:53:31.142Z,33.43
2018-02-09T12:56:00.025Z,33.00
2018-02-09T12:58:28.972Z,36.43
2018-02-09T13:00:58.135Z,38.73
2018-02-09T13:03:27.026Z,36.27
2018-02-09T13:05:55.900Z,27.07
2018-02-09T13:08:25.308Z,25.97
2018-02-09T13:10:54.209Z,31.93
2018-02-09T13:13:23.074Z,33.47
2018-02-09T13:15:51.980Z,38.47
2018-02-09T13:18:26.849Z,33.60
2018-02-09T13:20:55.789Z,34.60
2018-02-09T13:23:42.348Z,33.77
2018-02-09T13:26:11.723Z,36.33
2018-02-09T13:28:46.623Z,33.30
2018-02-09T13:31:15.533Z,32.57
2018-02-09T13:33:44.409Z,30.63
2018-02-09T13:36:15.112Z,33.80
2018-02-09T13:38:44.044Z,24.50
2018-02-09T13:41:12.920Z,30.40
2018-02-09T13:43:41.817Z,28.37
2018-02-09T13:46:10.733Z,30.97
2018-02-09T13:48:39.840Z,30.90
2018-02-09T13:51:08.707Z,27.33
2018-02-09T13:53:37.612Z,29.17
2018-02-09T13:56:06.504Z,28.77
2018-02-09T13:58:35.417Z,30.13
2018-02-09T14:01:04.628Z,27.60
2018-02-09T14:03:33.502Z,23.27
2018-02-09T14:06:03.261Z,36.03
2018-02-09T14:08:32.367Z,30.27
2018-02-09T14:11:01.310Z,25.73
2018-02-09T14:13:30.248Z,40.47
2018-02-09T14:15:59.338Z,33.10
2018-02-09T14:18:28.212Z,31.83
2018-02-09T14:20:58.036Z,28.03
2018-02-09T14:23:27.027Z,28.53
2018-02-09T14:25:56.067Z,27.27
2018-02-09T14:28:24.998Z,35.90
2018-02-09T14:30:54.232Z,28.93
2018-02-09T14:33:23.105Z,27.83
2018-02-09T14:35:51.985Z,32.60
2018-02-09T14:38:20.901Z,29.10
2018-02-09T14:40:49.778Z,33.00
2018-02-09T14:43:18.669Z,31.93
2018-02-09T14:45:47.572Z,29.10
2018-02-09T14:48:16.450Z,36.77
2018-02-09T14:50:45.559Z,32.77
2018-02-09T14:53:14.467Z,26.40
2018-02-09T14:55:44.278Z,27.80
2018-02-09T14:58:13.149Z,35.33
2018-02-09T15:00:42.045Z,29.30
2018-02-09T15:03:10.921Z,32.50
2018-02-09T15:05:39.791Z,31.13
2018-02-09T15:08:08.694Z,37.80
2018-02-09T15:10:37.751Z,29.40
2018-02-09T15:13:06.625Z,32.53
2018-02-09T15:15:35.540Z,32.40
2018-02-09T15:18:04.424Z,34.40
2018-02-09T15:20:33.295Z,28.87
2018-02-09T15:23:02.391Z,34.40
2018-02-09T15:25:31.332Z,32.00
2018-02-09T15:28:00.275Z,31.83
2018-02-09T15:30:29.177Z,31.00
2018-02-09T15:32:58.118Z,33.23
2018-02-09T15:35:26.997Z,30.67
2018-02-09T15:37:55.898Z,33.20
2018-02-09T15:40:25.005Z,43.17
2018-02-09T15:42:53.876Z,28.53
2018-02-09T15:45:22.871Z,32.73
2018-02-09T15:47:51.745Z,32.20
2018-02-09T15:50:20.616Z,27.73
2018-02-09T15:52:49.696Z,29.40
2018-02-09T15:55:18.573Z,33.10
2018-02-09T15:57:47.452Z,30.40
2018-02-09T16:00:16.348Z,34.80
2018-02-09T16:02:45.283Z,28.07
2018-02-09T16:05:14.169Z,27.90
2018-02-09T16:07:43.094Z,36.63
2018-02-09T16:10:11.976Z,33.27
2018-02-09T16:12:41.129Z,35.40
2018-02-09T16:15:10.076Z,31.93
2018-02-09T16:17:38.998Z,26.47
2018-02-09T16:20:07.872Z,35.03
2018-02-09T16:22:36.886Z,33.50
2018-02-09T16:25:05.768Z,31.83
2018-02-09T16:27:34.636Z,39.67
2018-02-09T16:30:04.044Z,32.57
2018-02-09T16:32:32.915Z,34.77
2018-02-09T16:35:01.814Z,23.57
2018-02-09T16:37:30.933Z,32.27
2018-02-09T16:39:59.808Z,32.43
2018-02-09T16:42:28.683Z,29.83
2018-02-09T16:44:57.681Z,26.73
2018-02-09T16:47:26.653Z,34.67
2018-02-09T16:49:55.619Z,36.23
2018-02-09T16:52:24.536Z,32.33
2018-02-09T16:54:53.601Z,33.23
2018-02-09T16:57:22.500Z,36.97
2018-02-09T16:59:51.592Z,28.37
2018-02-09T17:02:20.493Z,29.03
2018-02-09T17:04:49.456Z,30.33
2018-02-09T17:07:18.520Z,41.63
2018-02-09T17:09:47.443Z,30.23
2018-02-09T17:12:16.378Z,31.17
2018-02-09T17:14:45.599Z,36.50
2018-02-09T17:17:14.473Z,32.80
2018-02-09T17:19:43.352Z,38.80
2018-02-09T17:22:12.253Z,32.23
2018-02-09T17:24:41.141Z,38.77
2018-02-09T17:27:10.011Z,36.57
2018-02-09T17:29:38.953Z,35.50
2018-02-09T17:32:07.840Z,37.60
2018-02-09T17:34:36.771Z,33.87
2018-02-09T17:37:05.700Z,27.87
2018-02-09T17:39:34.592Z,43.50
2018-02-09T17:42:03.495Z,29.10
2018-02-09T17:44:32.416Z,30.20
2018-02-09T17:47:01.293Z,31.77
2018-02-09T17:49:30.218Z,36.90
2018-02-09T17:51:59.185Z,29.67
2018-02-09T17:54:28.072Z,32.50
2018-02-09T17:56:57.140Z,28.17
2018-02-09T17:59:26.821Z,26.33
2018-02-09T18:01:55.702Z,29.83
2018-02-09T18:04:24.601Z,22.07
2018-02-09T18:06:53.536Z,26.93
2018-02-09T18:09:22.422Z,27.17
2018-02-09T18:11:51.318Z,24.53
2018-02-09T18:14:20.300Z,25.03
2018-02-09T18:16:49.520Z,25.40
2018-02-09T18:19:18.410Z,31.90
2018-02-09T18:21:47.325Z,32.47
2018-02-09T18:24:16.207Z,29.40
2018-02-09T18:26:45.124Z,34.07
2018-02-09T18:29:14.376Z,25.93
2018-02-09T18:31:43.247Z,25.60
2018-02-09T18:34:12.609Z,25.67
2018-02-09T18:36:41.590Z,26.10
2018-02-09T18:39:10.501Z,28.47
2018-02-09T18:41:39.389Z,31.03
2018-02-09T18:44:08.370Z,31.00
2018-02-09T18:46:37.339Z,27.40
2018-02-09T18:49:06.316Z,33.10
2018-02-09T18:51:35.233Z,21.67
2018-02-09T18:54:04.434Z,29.10
2018-02-09T18:56:33.616Z,25.73
2018-02-09T18:59:03.004Z,29.73
2018-02-09T19:01:32.086Z,27.37
2018-02-09T19:04:01.014Z,32.20
2018-02-09T19:06:30.067Z,23.80
2018-02-09T19:08:58.955Z,26.13
2018-02-09T19:11:27.841Z,30.57
2018-02-09T19:13:56.789Z,31.27
2018-02-09T19:16:25.920Z,26.40
2018-02-09T19:18:55.157Z,33.30
2018-02-09T19:21:24.091Z,35.00
2018-02-09T19:23:52.983Z,29.70
2018-02-09T19:26:21.929Z,32.70
2018-02-09T19:28:50.865Z,30.33
2018-02-09T19:31:19.920Z,42.87
2018-02-09T19:33:49.010Z,29.87
2018-02-09T19:36:18.338Z,35.87
2018-02-09T19:38:47.336Z,32.10
2018-02-09T19:41:16.354Z,30.20
2018-02-09T19:43:45.449Z,28.80
2018-02-09T19:46:14.453Z,34.43
2018-02-09T19:48:43.361Z,34.70
2018-02-09T19:51:12.278Z,35.90
2018-02-09T19:53:41.191Z,29.77
2018-02-09T19:56:10.080Z,31.27
2018-02-09T19:58:39.146Z,32.33
2018-02-09T20:01:09.267Z,33.97
2018-02-09T20:03:38.208Z,44.50
2018-02-09T20:06:07.284Z,39.23
2018-02-09T20:08:36.495Z,35.60
2018-02-09T20:11:05.442Z,35.80
2018-02-09T20:13:34.651Z,41.40
2018-02-09T20:16:03.532Z,35.90
2018-02-09T20:18:32.523Z,42.63
2018-02-09T20:21:01.842Z,33.43
2018-02-09T20:23:30.725Z,45.07
2018-02-09T20:25:59.735Z,38.37
2018-02-09T20:28:28.774Z,42.80
2018-02-09T20:30:57.665Z,33.40
2018-02-09T20:33:26.589Z,40.90
2018-02-09T20:35:55.539Z,45.20
2018-02-09T20:38:24.551Z,37.40
2018-02-09T20:40:53.435Z,41.03
2018-02-09T20:43:22.361Z,36.63
2018-02-09T20:45:51.995Z,40.50
2018-02-09T20:48:21.001Z,35.13
2018-02-09T20:50:50.224Z,48.73
2018-02-09T20:53:19.170Z,38.83
2018-02-09T20:55:48.356Z,38.47
2018-02-09T20:58:17.347Z,39.87
2018-02-09T21:00:46.302Z,44.60
2018-02-09T21:03:15.232Z,39.40
2018-02-09T21:05:44.227Z,55.10
2018-02-09T21:08:13.835Z,42.00
2018-02-09T21:10:42.747Z,45.43
2018-02-09T21:13:12.010Z,41.40
2018-02-09T21:15:40.924Z,41.73
2018-02-09T21:18:09.796Z,38.17
2018-02-09T21:20:38.749Z,36.87
2018-02-09T21:23:07.827Z,46.57
2018-02-09T21:25:36.736Z,42.30
2018-02-09T21:28:05.781Z,38.67
2018-02-09T21:30:34.668Z,43.90
2018-02-09T21:33:03.553Z,44.27
2018-02-09T21:35:32.487Z,41.77
2018-02-09T21:38:01.384Z,38.43
2018-02-09T21:40:30.546Z,42.43
2018-02-09T21:42:59.697Z,47.40
2018-02-09T21:45:28.751Z,39.70
2018-02-09T21:47:57.615Z,38.97
2018-02-09T21:50:26.589Z,38.23
2018-02-09T21:52:55.481Z,41.73
2018-02-09T21:55:24.390Z,39.57
2018-02-09T21:57:53.301Z,35.80
2018-02-09T22:00:22.181Z,42.30
2018-02-09T22:02:51.077Z,32.83
2018-02-09T22:05:20.140Z,36.57
2018-02-09T22:07:49.031Z,39.43
2018-02-09T22:10:17.929Z,40.07
2018-02-09T22:12:46.890Z,30.37
2018-02-09T22:15:15.782Z,37.87
2018-02-09T22:17:44.655Z,39.20
2018-02-09T22:20:13.568Z,36.50
2018-02-09T22:22:42.459Z,38.90
2018-02-09T22:25:11.377Z,37.87
2018-02-09T22:27:40.283Z,32.10
2018-02-09T22:30:09.152Z,32.63
2018-02-09T22:32:38.261Z,45.50
2018-02-09T22:35:08.013Z,36.43
2018-02-09T22:37:39.871Z,34.43
2018-02-09T22:40:09.051Z,31.23
2018-02-09T22:42:38.189Z,36.70
2018-02-09T22:45:07.061Z,31.47
2018-02-09T22:47:35.956Z,37.00
2018-02-09T22:50:04.831Z,31.67
2018-02-09T22:52:33.695Z,35.47
2018-02-09T22:55:02.587Z,40.47
2018-02-09T22:57:31.463Z,36.47
2018-02-09T23:00:00.327Z,30.27
2018-02-09T23:02:29.415Z,42.57
2018-02-09T23:04:58.286Z,35.80
2018-02-09T23:07:27.329Z,32.93
2018-02-09T23:09:56.236Z,34.03
2018-02-09T23:12:25.114Z,31.87
2018-02-09T23:14:53.981Z,31.73
2018-02-09T23:17:23.113Z,32.77
2018-02-09T23:19:51.993Z,31.23
2018-02-09T23:22:20.884Z,30.83
2018-02-09T23:24:49.792Z,37.40
2018-02-09T23:27:18.858Z,34.80
2018-02-09T23:29:47.736Z,33.83
2018-02-09T23:32:16.637Z,36.40
2018-02-09T23:34:45.533Z,35.60
2018-02-09T23:37:14.584Z,38.30
2018-02-09T23:39:43.492Z,33.60
2018-02-09T23:42:12.387Z,39.03
2018-02-09T23:44:41.502Z,35.67
2018-02-09T23:47:10.448Z,38.73
2018-02-09T23:49:39.325Z,41.23
2018-02-09T23:52:09.029Z,40.50
2018-02-09T23:54:38.048Z,60.30
2018-02-09T23:57:06.929Z,28.93
2018-02-09T23:59:35.801Z,33.40
